sensor_id;sensor_type;location;lat;lon;timestamp;P1;durP1;ratioP1;P2;durP2;ratioP2
22160;SDS011;49035;48.812;11.762;2024-01-16T00:01:27;8.37;;;4.33;;
22160;SDS011;49035;48.812;11.762;2024-01-16T00:03:53;7.67;;;4.67;;
22160;SDS011;49035;48.812;11.762;2024-01-16T00:06:19;9.67;;;4.40;;
22160;SDS011;49035;48.812;11.762;2024-01-16T00:08:44;10.17;;;4.10;;
22160;SDS011;49035;48.812;11.762;2024-01-16T00:11:10;6.87;;;4.13;;
22160;SDS011;49035;48.812;11.762;2024-01-16T00:13:36;6.60;;;4.00;;
22160;SDS011;49035;48.812;11.762;2024-01-16T00:16:01;9.43;;;4.37;;
22160;SDS011;49035;48.812;11.762;2024-01-16T00:18:28;6.23;;;4.30;;
22160;SDS011;49035;48.812;11.762;2024-01-16T00:20:54;8.23;;;4.47;;
22160;SDS011;49035;48.812;11.762;2024-01-16T00:23:20;6.00;;;4.07;;
22160;SDS011;49035;48.812;11.762;2024-01-16T00:25:46;8.03;;;4.37;;
22160;SDS011;49035;48.812;11.762;2024-01-16T00:28:11;6.07;;;3.80;;
22160;SDS011;49035;48.812;11.762;2024-01-16T00:30:37;9.60;;;4.13;;
22160;SDS011;49035;48.812;11.762;2024-01-16T00:33:02;7.63;;;4.37;;
22160;SDS011;49035;48.812;11.762;2024-01-16T00:35:28;7.07;;;3.80;;
22160;SDS011;49035;48.812;11.762;2024-01-16T00:37:54;6.83;;;4.33;;
22160;SDS011;49035;48.812;11.762;2024-01-16T00:40:19;6.33;;;3.87;;
22160;SDS011;49035;48.812;11.762;2024-01-16T00:42:45;7.23;;;4.03;;
22160;SDS011;49035;48.812;11.762;2024-01-16T00:45:10;7.07;;;3.90;;
22160;SDS011;49035;48.812;11.762;2024-01-16T00:47:36;6.10;;;4.07;;
22160;SDS011;49035;48.812;11.762;2024-01-16T00:50:02;6.97;;;3.77;;
22160;SDS011;49035;48.812;11.762;2024-01-16T00:52:27;5.67;;;3.60;;
22160;SDS011;49035;48.812;11.762;2024-01-16T00:54:53;5.57;;;3.43;;
22160;SDS011;49035;48.812;11.762;2024-01-16T00:57:19;5.40;;;3.40;;
22160;SDS011;49035;48.812;11.762;2024-01-16T00:59:45;7.47;;;3.97;;
22160;SDS011;49035;48.812;11.762;2024-01-16T01:02:11;4.40;;;3.50;;
22160;SDS011;49035;48.812;11.762;2024-01-16T01:04:37;8.67;;;4.00;;
22160;SDS011;49035;48.812;11.762;2024-01-16T01:07:03;6.77;;;3.30;;
22160;SDS011;49035;48.812;11.762;2024-01-16T01:09:28;6.97;;;4.07;;
22160;SDS011;49035;48.812;11.762;2024-01-16T01:11:54;5.90;;;3.47;;
22160;SDS011;49035;48.812;11.762;2024-01-16T01:14:20;8.93;;;3.80;;
22160;SDS011;49035;48.812;11.762;2024-01-16T01:16:45;5.57;;;3.70;;
22160;SDS011;49035;48.812;11.762;2024-01-16T01:19:11;8.73;;;3.67;;
22160;SDS011;49035;48.812;11.762;2024-01-16T01:21:37;6.63;;;4.00;;
22160;SDS011;49035;48.812;11.762;2024-01-16T01:24:03;8.33;;;3.33;;
22160;SDS011;49035;48.812;11.762;2024-01-16T01:26:29;7.00;;;3.50;;
22160;SDS011;49035;48.812;11.762;2024-01-16T01:28:54;6.03;;;4.17;;
22160;SDS011;49035;48.812;11.762;2024-01-16T01:31:20;6.00;;;3.40;;
22160;SDS011;49035;48.812;11.762;2024-01-16T01:33:45;7.27;;;3.70;;
22160;SDS011;49035;48.812;11.762;2024-01-16T01:36:11;8.17;;;3.70;;
22160;SDS011;49035;48.812;11.762;2024-01-16T01:38:36;8.83;;;3.70;;
22160;SDS011;49035;48.812;11.762;2024-01-16T01:41:02;6.03;;;3.57;;
22160;SDS011;49035;48.812;11.762;2024-01-16T01:43:27;5.93;;;3.50;;
22160;SDS011;49035;48.812;11.762;2024-01-16T01:45:59;4.67;;;3.20;;
22160;SDS011;49035;48.812;11.762;2024-01-16T01:48:45;7.73;;;4.20;;
22160;SDS011;49035;48.812;11.762;2024-01-16T01:51:13;7.57;;;3.60;;
22160;SDS011;49035;48.812;11.762;2024-01-16T01:53:42;7.20;;;3.83;;
22160;SDS011;49035;48.812;11.762;2024-01-16T01:56:10;6.27;;;3.97;;
22160;SDS011;49035;48.812;11.762;2024-01-16T01:58:38;5.83;;;3.37;;
22160;SDS011;49035;48.812;11.762;2024-01-16T02:01:06;7.07;;;3.57;;
22160;SDS011;49035;48.812;11.762;2024-01-16T02:03:33;5.30;;;3.73;;
22160;SDS011;49035;48.812;11.762;2024-01-16T02:06:03;4.00;;;3.17;;
22160;SDS011;49035;48.812;11.762;2024-01-16T02:08:29;8.10;;;3.90;;
22160;SDS011;49035;48.812;11.762;2024-01-16T02:10:54;6.00;;;3.97;;
22160;SDS011;49035;48.812;11.762;2024-01-16T02:13:20;7.67;;;4.07;;
22160;SDS011;49035;48.812;11.762;2024-01-16T02:15:48;14.23;;;4.40;;
22160;SDS011;49035;48.812;11.762;2024-01-16T02:18:15;5.67;;;3.53;;
22160;SDS011;49035;48.812;11.762;2024-01-16T02:20:41;7.93;;;4.27;;
22160;SDS011;49035;48.812;11.762;2024-01-16T02:23:07;6.10;;;3.77;;
22160;SDS011;49035;48.812;11.762;2024-01-16T02:25:34;10.70;;;4.57;;
22160;SDS011;49035;48.812;11.762;2024-01-16T02:28:00;9.03;;;4.30;;
22160;SDS011;49035;48.812;11.762;2024-01-16T02:30:27;8.47;;;3.47;;
22160;SDS011;49035;48.812;11.762;2024-01-16T02:32:52;4.57;;;3.47;;
22160;SDS011;49035;48.812;11.762;2024-01-16T02:35:18;7.23;;;3.63;;
22160;SDS011;49035;48.812;11.762;2024-01-16T02:37:44;5.20;;;3.40;;
22160;SDS011;49035;48.812;11.762;2024-01-16T02:40:10;7.60;;;4.07;;
22160;SDS011;49035;48.812;11.762;2024-01-16T02:42:36;7.83;;;3.60;;
22160;SDS011;49035;48.812;11.762;2024-01-16T02:45:04;4.40;;;3.20;;
22160;SDS011;49035;48.812;11.762;2024-01-16T02:47:30;6.00;;;3.77;;
22160;SDS011;49035;48.812;11.762;2024-01-16T02:49:56;6.93;;;3.80;;
22160;SDS011;49035;48.812;11.762;2024-01-16T02:52:23;6.23;;;4.30;;
22160;SDS011;49035;48.812;11.762;2024-01-16T02:54:48;7.43;;;3.67;;
22160;SDS011;49035;48.812;11.762;2024-01-16T02:57:14;4.77;;;3.50;;
22160;SDS011;49035;48.812;11.762;2024-01-16T02:59:42;5.50;;;3.87;;
22160;SDS011;49035;48.812;11.762;2024-01-16T03:02:11;6.13;;;3.57;;
22160;SDS011;49035;48.812;11.762;2024-01-16T03:04:38;6.93;;;3.77;;
22160;SDS011;49035;48.812;11.762;2024-01-16T03:07:04;7.90;;;3.97;;
22160;SDS011;49035;48.812;11.762;2024-01-16T03:09:30;7.60;;;3.50;;
22160;SDS011;49035;48.812;11.762;2024-01-16T03:11:56;6.20;;;4.00;;
22160;SDS011;49035;48.812;11.762;2024-01-16T03:14:22;7.70;;;4.10;;
22160;SDS011;49035;48.812;11.762;2024-01-16T03:16:48;5.77;;;3.53;;
22160;SDS011;49035;48.812;11.762;2024-01-16T03:19:14;7.13;;;4.03;;
22160;SDS011;49035;48.812;11.762;2024-01-16T03:21:39;7.27;;;3.67;;
22160;SDS011;49035;48.812;11.762;2024-01-16T03:24:06;9.60;;;3.80;;
22160;SDS011;49035;48.812;11.762;2024-01-16T03:26:31;6.00;;;3.40;;
22160;SDS011;49035;48.812;11.762;2024-01-16T03:28:58;6.13;;;3.50;;
22160;SDS011;49035;48.812;11.762;2024-01-16T03:31:24;6.37;;;4.10;;
22160;SDS011;49035;48.812;11.762;2024-01-16T03:33:49;5.47;;;3.93;;
22160;SDS011;49035;48.812;11.762;2024-01-16T03:36:15;5.93;;;3.70;;
22160;SDS011;49035;48.812;11.762;2024-01-16T03:38:44;6.17;;;3.77;;
22160;SDS011;49035;48.812;11.762;2024-01-16T03:41:12;5.40;;;3.43;;
22160;SDS011;49035;48.812;11.762;2024-01-16T03:43:38;8.70;;;4.17;;
22160;SDS011;49035;48.812;11.762;2024-01-16T03:46:05;6.93;;;3.60;;
22160;SDS011;49035;48.812;11.762;2024-01-16T03:48:31;7.50;;;3.77;;
22160;SDS011;49035;48.812;11.762;2024-01-16T03:50:57;6.90;;;4.13;;
22160;SDS011;49035;48.812;11.762;2024-01-16T03:53:23;7.07;;;4.00;;
22160;SDS011;49035;48.812;11.762;2024-01-16T03:55:48;5.47;;;3.63;;
22160;SDS011;49035;48.812;11.762;2024-01-16T03:58:17;6.47;;;3.70;;
22160;SDS011;49035;48.812;11.762;2024-01-16T04:00:44;5.97;;;3.57;;
22160;SDS011;49035;48.812;11.762;2024-01-16T04:03:09;6.30;;;4.07;;
22160;SDS011;49035;48.812;11.762;2024-01-16T04:05:36;4.77;;;3.47;;
22160;SDS011;49035;48.812;11.762;2024-01-16T04:08:01;8.17;;;3.90;;
22160;SDS011;49035;48.812;11.762;2024-01-16T04:10:27;7.27;;;3.70;;
22160;SDS011;49035;48.812;11.762;2024-01-16T04:12:53;7.63;;;3.70;;
22160;SDS011;49035;48.812;11.762;2024-01-16T04:15:18;6.43;;;3.87;;
22160;SDS011;49035;48.812;11.762;2024-01-16T04:17:44;8.67;;;4.07;;
22160;SDS011;49035;48.812;11.762;2024-01-16T04:20:09;6.33;;;3.43;;
22160;SDS011;49035;48.812;11.762;2024-01-16T04:22:36;5.67;;;3.87;;
22160;SDS011;49035;48.812;11.762;2024-01-16T04:25:01;8.07;;;3.77;;
22160;SDS011;49035;48.812;11.762;2024-01-16T04:27:29;8.17;;;3.50;;
22160;SDS011;49035;48.812;11.762;2024-01-16T04:29:56;5.17;;;3.63;;
22160;SDS011;49035;48.812;11.762;2024-01-16T04:32:21;6.77;;;3.23;;
22160;SDS011;49035;48.812;11.762;2024-01-16T04:34:47;5.80;;;3.07;;
22160;SDS011;49035;48.812;11.762;2024-01-16T04:37:12;5.83;;;4.00;;
22160;SDS011;49035;48.812;11.762;2024-01-16T04:39:38;5.30;;;3.90;;
22160;SDS011;49035;48.812;11.762;2024-01-16T04:42:04;8.10;;;4.30;;
22160;SDS011;49035;48.812;11.762;2024-01-16T04:44:30;5.63;;;3.70;;
22160;SDS011;49035;48.812;11.762;2024-01-16T04:46:55;6.10;;;3.53;;
22160;SDS011;49035;48.812;11.762;2024-01-16T04:49:21;5.33;;;3.30;;
22160;SDS011;49035;48.812;11.762;2024-01-16T04:51:47;5.83;;;3.03;;
22160;SDS011;49035;48.812;11.762;2024-01-16T04:54:12;6.17;;;3.37;;
22160;SDS011;49035;48.812;11.762;2024-01-16T04:56:38;5.50;;;3.00;;
22160;SDS011;49035;48.812;11.762;2024-01-16T04:59:03;8.23;;;3.50;;
22160;SDS011;49035;48.812;11.762;2024-01-16T05:01:29;6.33;;;3.37;;
22160;SDS011;49035;48.812;11.762;2024-01-16T05:03:54;8.43;;;3.10;;
22160;SDS011;49035;48.812;11.762;2024-01-16T05:06:20;7.13;;;3.50;;
22160;SDS011;49035;48.812;11.762;2024-01-16T05:08:46;7.73;;;4.07;;
22160;SDS011;49035;48.812;11.762;2024-01-16T05:11:12;6.37;;;3.03;;
22160;SDS011;49035;48.812;11.762;2024-01-16T05:13:37;4.53;;;3.00;;
22160;SDS011;49035;48.812;11.762;2024-01-16T05:16:03;5.33;;;3.47;;
22160;SDS011;49035;48.812;11.762;2024-01-16T05:18:29;6.60;;;4.10;;
22160;SDS011;49035;48.812;11.762;2024-01-16T05:20:54;7.30;;;3.57;;
22160;SDS011;49035;48.812;11.762;2024-01-16T05:23:21;5.67;;;3.37;;
22160;SDS011;49035;48.812;11.762;2024-01-16T05:25:47;5.77;;;3.00;;
22160;SDS011;49035;48.812;11.762;2024-01-16T05:28:12;6.40;;;3.27;;
22160;SDS011;49035;48.812;11.762;2024-01-16T05:30:38;5.80;;;3.07;;
22160;SDS011;49035;48.812;11.762;2024-01-16T05:33:03;4.70;;;2.90;;
22160;SDS011;49035;48.812;11.762;2024-01-16T05:35:29;7.37;;;3.33;;
22160;SDS011;49035;48.812;11.762;2024-01-16T05:37:55;7.37;;;3.20;;
22160;SDS011;49035;48.812;11.762;2024-01-16T05:40:22;6.27;;;2.77;;
22160;SDS011;49035;48.812;11.762;2024-01-16T05:42:48;5.37;;;3.07;;
22160;SDS011;49035;48.812;11.762;2024-01-16T05:45:14;5.33;;;3.00;;
22160;SDS011;49035;48.812;11.762;2024-01-16T05:47:40;4.83;;;3.00;;
22160;SDS011;49035;48.812;11.762;2024-01-16T05:50:06;5.20;;;3.30;;
22160;SDS011;49035;48.812;11.762;2024-01-16T05:52:32;3.03;;;2.73;;
22160;SDS011;49035;48.812;11.762;2024-01-16T05:54:58;7.00;;;2.67;;
22160;SDS011;49035;48.812;11.762;2024-01-16T05:57:24;5.80;;;3.20;;
22160;SDS011;49035;48.812;11.762;2024-01-16T05:59:50;5.27;;;2.90;;
22160;SDS011;49035;48.812;11.762;2024-01-16T06:02:16;7.07;;;3.13;;
22160;SDS011;49035;48.812;11.762;2024-01-16T06:04:42;4.80;;;2.80;;
22160;SDS011;49035;48.812;11.762;2024-01-16T06:07:08;4.37;;;2.93;;
22160;SDS011;49035;48.812;11.762;2024-01-16T06:09:38;4.03;;;2.80;;
22160;SDS011;49035;48.812;11.762;2024-01-16T06:12:07;4.67;;;2.93;;
22160;SDS011;49035;48.812;11.762;2024-01-16T06:14:33;4.37;;;2.57;;
22160;SDS011;49035;48.812;11.762;2024-01-16T06:16:59;7.50;;;3.00;;
22160;SDS011;49035;48.812;11.762;2024-01-16T06:19:26;4.93;;;2.70;;
22160;SDS011;49035;48.812;11.762;2024-01-16T06:21:51;5.83;;;2.87;;
22160;SDS011;49035;48.812;11.762;2024-01-16T06:24:17;7.43;;;3.57;;
22160;SDS011;49035;48.812;11.762;2024-01-16T06:26:42;5.57;;;3.00;;
22160;SDS011;49035;48.812;11.762;2024-01-16T06:29:08;6.17;;;2.83;;
22160;SDS011;49035;48.812;11.762;2024-01-16T06:31:34;6.50;;;3.33;;
22160;SDS011;49035;48.812;11.762;2024-01-16T06:33:59;5.63;;;2.87;;
22160;SDS011;49035;48.812;11.762;2024-01-16T06:36:25;4.13;;;2.60;;
22160;SDS011;49035;48.812;11.762;2024-01-16T06:38:51;5.87;;;3.37;;
22160;SDS011;49035;48.812;11.762;2024-01-16T06:41:16;4.33;;;2.30;;
22160;SDS011;49035;48.812;11.762;2024-01-16T06:43:42;4.17;;;2.87;;
22160;SDS011;49035;48.812;11.762;2024-01-16T06:46:08;5.00;;;2.63;;
22160;SDS011;49035;48.812;11.762;2024-01-16T06:48:35;6.53;;;3.33;;
22160;SDS011;49035;48.812;11.762;2024-01-16T06:51:01;4.23;;;2.83;;
22160;SDS011;49035;48.812;11.762;2024-01-16T06:53:27;4.90;;;3.00;;
22160;SDS011;49035;48.812;11.762;2024-01-16T06:55:53;5.23;;;2.70;;
22160;SDS011;49035;48.812;11.762;2024-01-16T06:58:18;4.83;;;2.73;;
22160;SDS011;49035;48.812;11.762;2024-01-16T07:00:44;4.30;;;2.53;;
22160;SDS011;49035;48.812;11.762;2024-01-16T07:03:11;4.73;;;3.23;;
22160;SDS011;49035;48.812;11.762;2024-01-16T07:05:37;6.17;;;3.40;;
22160;SDS011;49035;48.812;11.762;2024-01-16T07:08:03;6.37;;;3.30;;
22160;SDS011;49035;48.812;11.762;2024-01-16T07:10:29;9.10;;;5.07;;
22160;SDS011;49035;48.812;11.762;2024-01-16T07:12:54;6.50;;;3.93;;
22160;SDS011;49035;48.812;11.762;2024-01-16T07:15:21;13.03;;;7.00;;
22160;SDS011;49035;48.812;11.762;2024-01-16T07:17:47;16.77;;;6.97;;
22160;SDS011;49035;48.812;11.762;2024-01-16T07:20:12;18.97;;;7.43;;
22160;SDS011;49035;48.812;11.762;2024-01-16T07:22:38;10.10;;;4.63;;
22160;SDS011;49035;48.812;11.762;2024-01-16T07:25:06;9.80;;;4.87;;
22160;SDS011;49035;48.812;11.762;2024-01-16T07:27:33;6.27;;;4.00;;
22160;SDS011;49035;48.812;11.762;2024-01-16T07:29:59;7.53;;;3.93;;
22160;SDS011;49035;48.812;11.762;2024-01-16T07:32:25;5.87;;;3.80;;
22160;SDS011;49035;48.812;11.762;2024-01-16T07:34:51;9.70;;;5.50;;
22160;SDS011;49035;48.812;11.762;2024-01-16T07:37:17;8.00;;;3.83;;
22160;SDS011;49035;48.812;11.762;2024-01-16T07:39:43;6.80;;;3.93;;
22160;SDS011;49035;48.812;11.762;2024-01-16T07:42:09;7.03;;;3.93;;
22160;SDS011;49035;48.812;11.762;2024-01-16T07:44:35;8.33;;;4.33;;
22160;SDS011;49035;48.812;11.762;2024-01-16T07:47:00;8.40;;;4.80;;
22160;SDS011;49035;48.812;11.762;2024-01-16T07:49:26;9.27;;;5.13;;
22160;SDS011;49035;48.812;11.762;2024-01-16T07:51:51;11.37;;;5.57;;
22160;SDS011;49035;48.812;11.762;2024-01-16T07:54:17;23.33;;;9.13;;
22160;SDS011;49035;48.812;11.762;2024-01-16T07:56:43;24.13;;;10.37;;
22160;SDS011;49035;48.812;11.762;2024-01-16T07:59:08;13.00;;;5.53;;
22160;SDS011;49035;48.812;11.762;2024-01-16T08:01:34;7.23;;;3.30;;
22160;SDS011;49035;48.812;11.762;2024-01-16T08:03:59;5.80;;;3.60;;
22160;SDS011;49035;48.812;11.762;2024-01-16T08:06:25;11.13;;;4.03;;
22160;SDS011;49035;48.812;11.762;2024-01-16T08:08:51;8.07;;;3.90;;
22160;SDS011;49035;48.812;11.762;2024-01-16T08:11:18;7.93;;;3.60;;
22160;SDS011;49035;48.812;11.762;2024-01-16T08:13:44;6.87;;;3.63;;
22160;SDS011;49035;48.812;11.762;2024-01-16T08:16:09;6.07;;;3.80;;
22160;SDS011;49035;48.812;11.762;2024-01-16T08:18:35;7.77;;;3.60;;
22160;SDS011;49035;48.812;11.762;2024-01-16T08:21:01;5.77;;;3.93;;
22160;SDS011;49035;48.812;11.762;2024-01-16T08:23:27;7.60;;;4.00;;
22160;SDS011;49035;48.812;11.762;2024-01-16T08:25:53;6.43;;;3.87;;
22160;SDS011;49035;48.812;11.762;2024-01-16T08:28:18;6.87;;;3.73;;
22160;SDS011;49035;48.812;11.762;2024-01-16T08:30:44;5.50;;;3.47;;
22160;SDS011;49035;48.812;11.762;2024-01-16T08:33:11;8.00;;;3.43;;
22160;SDS011;49035;48.812;11.762;2024-01-16T08:35:37;5.07;;;3.30;;
22160;SDS011;49035;48.812;11.762;2024-01-16T08:38:02;6.43;;;3.87;;
22160;SDS011;49035;48.812;11.762;2024-01-16T08:40:28;9.73;;;3.90;;
22160;SDS011;49035;48.812;11.762;2024-01-16T08:42:54;14.30;;;6.30;;
22160;SDS011;49035;48.812;11.762;2024-01-16T08:45:23;7.57;;;4.30;;
22160;SDS011;49035;48.812;11.762;2024-01-16T08:47:49;7.67;;;3.97;;
22160;SDS011;49035;48.812;11.762;2024-01-16T08:50:15;8.33;;;3.60;;
22160;SDS011;49035;48.812;11.762;2024-01-16T08:52:41;8.47;;;4.57;;
22160;SDS011;49035;48.812;11.762;2024-01-16T08:55:07;5.87;;;3.60;;
22160;SDS011;49035;48.812;11.762;2024-01-16T08:57:34;11.20;;;4.10;;
22160;SDS011;49035;48.812;11.762;2024-01-16T08:59:59;10.10;;;4.70;;
22160;SDS011;49035;48.812;11.762;2024-01-16T09:02:25;7.23;;;4.37;;
22160;SDS011;49035;48.812;11.762;2024-01-16T09:04:54;7.23;;;3.93;;
22160;SDS011;49035;48.812;11.762;2024-01-16T09:07:20;7.43;;;4.10;;
22160;SDS011;49035;48.812;11.762;2024-01-16T09:09:45;9.93;;;4.43;;
22160;SDS011;49035;48.812;11.762;2024-01-16T09:12:11;6.00;;;3.90;;
22160;SDS011;49035;48.812;11.762;2024-01-16T09:14:37;6.13;;;3.60;;
22160;SDS011;49035;48.812;11.762;2024-01-16T09:17:03;6.03;;;4.00;;
22160;SDS011;49035;48.812;11.762;2024-01-16T09:19:28;5.37;;;4.10;;
22160;SDS011;49035;48.812;11.762;2024-01-16T09:21:54;5.87;;;3.37;;
22160;SDS011;49035;48.812;11.762;2024-01-16T09:24:20;4.83;;;3.30;;
22160;SDS011;49035;48.812;11.762;2024-01-16T09:26:46;6.07;;;3.33;;
22160;SDS011;49035;48.812;11.762;2024-01-16T09:29:12;7.10;;;3.97;;
22160;SDS011;49035;48.812;11.762;2024-01-16T09:31:39;9.37;;;4.20;;
22160;SDS011;49035;48.812;11.762;2024-01-16T09:34:05;6.90;;;3.80;;
22160;SDS011;49035;48.812;11.762;2024-01-16T09:36:31;7.67;;;3.70;;
22160;SDS011;49035;48.812;11.762;2024-01-16T09:38:56;9.33;;;3.90;;
22160;SDS011;49035;48.812;11.762;2024-01-16T09:41:22;7.67;;;3.87;;
22160;SDS011;49035;48.812;11.762;2024-01-16T09:43:48;5.50;;;3.63;;
22160;SDS011;49035;48.812;11.762;2024-01-16T09:46:15;7.13;;;3.80;;
22160;SDS011;49035;48.812;11.762;2024-01-16T09:48:44;7.03;;;3.83;;
22160;SDS011;49035;48.812;11.762;2024-01-16T09:51:10;6.27;;;3.60;;
22160;SDS011;49035;48.812;11.762;2024-01-16T09:53:41;6.93;;;4.03;;
22160;SDS011;49035;48.812;11.762;2024-01-16T09:56:09;7.60;;;4.00;;
22160;SDS011;49035;48.812;11.762;2024-01-16T09:58:41;6.43;;;3.50;;
22160;SDS011;49035;48.812;11.762;2024-01-16T10:01:09;9.30;;;3.83;;
22160;SDS011;49035;48.812;11.762;2024-01-16T10:03:36;9.80;;;5.10;;
22160;SDS011;49035;48.812;11.762;2024-01-16T10:06:04;8.67;;;5.23;;
22160;SDS011;49035;48.812;11.762;2024-01-16T10:08:31;9.23;;;5.40;;
22160;SDS011;49035;48.812;11.762;2024-01-16T10:11:00;10.60;;;5.43;;
22160;SDS011;49035;48.812;11.762;2024-01-16T10:13:25;12.13;;;7.23;;
22160;SDS011;49035;48.812;11.762;2024-01-16T10:15:52;8.03;;;5.33;;
22160;SDS011;49035;48.812;11.762;2024-01-16T10:18:27;9.83;;;4.90;;
22160;SDS011;49035;48.812;11.762;2024-01-16T10:20:54;9.03;;;4.77;;
22160;SDS011;49035;48.812;11.762;2024-01-16T10:23:24;9.43;;;5.40;;
22160;SDS011;49035;48.812;11.762;2024-01-16T10:28:40;6.10;;;4.70;;
22160;SDS011;49035;48.812;11.762;2024-01-16T10:31:11;7.37;;;3.80;;
22160;SDS011;49035;48.812;11.762;2024-01-16T10:33:39;5.97;;;3.73;;
22160;SDS011;49035;48.812;11.762;2024-01-16T10:36:09;5.87;;;4.07;;
22160;SDS011;49035;48.812;11.762;2024-01-16T10:38:38;7.17;;;3.53;;
22160;SDS011;49035;48.812;11.762;2024-01-16T10:41:06;4.63;;;3.60;;
22160;SDS011;49035;48.812;11.762;2024-01-16T10:43:36;4.27;;;2.97;;
22160;SDS011;49035;48.812;11.762;2024-01-16T10:46:09;4.63;;;3.37;;
22160;SDS011;49035;48.812;11.762;2024-01-16T10:48:36;6.63;;;3.83;;
22160;SDS011;49035;48.812;11.762;2024-01-16T10:51:03;6.87;;;3.63;;
22160;SDS011;49035;48.812;11.762;2024-01-16T10:53:32;5.47;;;3.20;;
22160;SDS011;49035;48.812;11.762;2024-01-16T10:55:59;5.87;;;3.90;;
22160;SDS011;49035;48.812;11.762;2024-01-16T10:58:29;5.63;;;3.53;;
22160;SDS011;49035;48.812;11.762;2024-01-16T11:00:57;4.63;;;3.47;;
22160;SDS011;49035;48.812;11.762;2024-01-16T11:04:08;6.13;;;3.30;;
22160;SDS011;49035;48.812;11.762;2024-01-16T11:06:16;5.90;;;3.43;;
22160;SDS011;49035;48.812;11.762;2024-01-16T11:08:43;9.53;;;4.70;;
22160;SDS011;49035;48.812;11.762;2024-01-16T11:11:14;9.27;;;4.37;;
22160;SDS011;49035;48.812;11.762;2024-01-16T11:13:40;9.03;;;5.00;;
22160;SDS011;49035;48.812;11.762;2024-01-16T11:16:10;9.23;;;4.80;;
22160;SDS011;49035;48.812;11.762;2024-01-16T11:18:36;7.77;;;4.20;;
22160;SDS011;49035;48.812;11.762;2024-01-16T11:21:06;14.27;;;6.33;;
22160;SDS011;49035;48.812;11.762;2024-01-16T11:23:33;18.43;;;7.67;;
22160;SDS011;49035;48.812;11.762;2024-01-16T11:26:00;6.87;;;3.87;;
22160;SDS011;49035;48.812;11.762;2024-01-16T11:29:33;15.77;;;6.67;;
22160;SDS011;49035;48.812;11.762;2024-01-16T11:31:52;8.70;;;5.30;;
22160;SDS011;49035;48.812;11.762;2024-01-16T11:37:10;11.63;;;5.10;;
22160;SDS011;49035;48.812;11.762;2024-01-16T11:39:37;10.80;;;5.57;;
22160;SDS011;49035;48.812;11.762;2024-01-16T11:42:03;9.60;;;5.20;;
22160;SDS011;49035;48.812;11.762;2024-01-16T11:47:07;6.20;;;4.40;;
22160;SDS011;49035;48.812;11.762;2024-01-16T11:49:34;7.80;;;3.87;;
22160;SDS011;49035;48.812;11.762;2024-01-16T11:52:01;7.20;;;3.63;;
22160;SDS011;49035;48.812;11.762;2024-01-16T11:54:27;7.67;;;4.33;;
22160;SDS011;49035;48.812;11.762;2024-01-16T11:56:58;7.20;;;3.03;;
22160;SDS011;49035;48.812;11.762;2024-01-16T12:02:45;5.73;;;3.60;;
22160;SDS011;49035;48.812;11.762;2024-01-16T12:05:19;7.77;;;3.73;;
22160;SDS011;49035;48.812;11.762;2024-01-16T12:07:51;5.73;;;3.33;;
22160;SDS011;49035;48.812;11.762;2024-01-16T12:10:19;7.93;;;3.57;;
22160;SDS011;49035;48.812;11.762;2024-01-16T12:12:47;6.13;;;3.87;;
22160;SDS011;49035;48.812;11.762;2024-01-16T12:15:22;7.67;;;4.13;;
22160;SDS011;49035;48.812;11.762;2024-01-16T12:20:43;4.30;;;3.17;;
22160;SDS011;49035;48.812;11.762;2024-01-16T12:23:09;6.67;;;3.70;;
22160;SDS011;49035;48.812;11.762;2024-01-16T12:25:35;5.47;;;3.77;;
22160;SDS011;49035;48.812;11.762;2024-01-16T12:28:06;6.47;;;3.67;;
22160;SDS011;49035;48.812;11.762;2024-01-16T12:30:36;8.57;;;4.40;;
22160;SDS011;49035;48.812;11.762;2024-01-16T12:33:09;7.07;;;3.60;;
22160;SDS011;49035;48.812;11.762;2024-01-16T12:35:38;5.17;;;3.73;;
22160;SDS011;49035;48.812;11.762;2024-01-16T12:38:08;5.83;;;3.67;;
22160;SDS011;49035;48.812;11.762;2024-01-16T12:40:35;8.40;;;3.53;;
22160;SDS011;49035;48.812;11.762;2024-01-16T12:43:04;5.10;;;3.53;;
22160;SDS011;49035;48.812;11.762;2024-01-16T12:45:32;6.10;;;3.43;;
22160;SDS011;49035;48.812;11.762;2024-01-16T12:47:59;14.80;;;4.30;;
22160;SDS011;49035;48.812;11.762;2024-01-16T12:50:26;5.73;;;3.60;;
22160;SDS011;49035;48.812;11.762;2024-01-16T12:53:01;8.70;;;4.60;;
22160;SDS011;49035;48.812;11.762;2024-01-16T12:55:28;7.90;;;4.00;;
22160;SDS011;49035;48.812;11.762;2024-01-16T12:58:17;15.87;;;7.37;;
22160;SDS011;49035;48.812;11.762;2024-01-16T13:00:43;6.53;;;4.30;;
22160;SDS011;49035;48.812;11.762;2024-01-16T13:05:44;7.17;;;3.90;;
22160;SDS011;49035;48.812;11.762;2024-01-16T13:08:18;5.60;;;3.67;;
22160;SDS011;49035;48.812;11.762;2024-01-16T13:10:44;7.47;;;4.40;;
22160;SDS011;49035;48.812;11.762;2024-01-16T13:13:11;8.00;;;4.10;;
22160;SDS011;49035;48.812;11.762;2024-01-16T13:15:39;6.83;;;3.43;;
22160;SDS011;49035;48.812;11.762;2024-01-16T13:18:04;6.27;;;3.90;;
22160;SDS011;49035;48.812;11.762;2024-01-16T13:20:30;6.80;;;3.57;;
22160;SDS011;49035;48.812;11.762;2024-01-16T13:22:56;5.93;;;3.57;;
22160;SDS011;49035;48.812;11.762;2024-01-16T13:25:22;6.70;;;3.67;;
22160;SDS011;49035;48.812;11.762;2024-01-16T13:27:47;7.60;;;3.53;;
22160;SDS011;49035;48.812;11.762;2024-01-16T13:30:13;7.63;;;3.37;;
22160;SDS011;49035;48.812;11.762;2024-01-16T13:32:39;6.77;;;3.53;;
22160;SDS011;49035;48.812;11.762;2024-01-16T13:35:05;6.83;;;3.57;;
22160;SDS011;49035;48.812;11.762;2024-01-16T13:37:34;6.47;;;3.57;;
22160;SDS011;49035;48.812;11.762;2024-01-16T13:40:03;6.53;;;3.57;;
22160;SDS011;49035;48.812;11.762;2024-01-16T13:42:33;5.63;;;3.47;;
22160;SDS011;49035;48.812;11.762;2024-01-16T13:45:00;7.40;;;3.50;;
22160;SDS011;49035;48.812;11.762;2024-01-16T13:47:25;6.20;;;3.87;;
22160;SDS011;49035;48.812;11.762;2024-01-16T13:49:51;4.47;;;3.17;;
22160;SDS011;49035;48.812;11.762;2024-01-16T13:52:17;5.00;;;3.37;;
22160;SDS011;49035;48.812;11.762;2024-01-16T13:54:42;6.93;;;3.90;;
22160;SDS011;49035;48.812;11.762;2024-01-16T13:57:08;6.77;;;3.13;;
22160;SDS011;49035;48.812;11.762;2024-01-16T13:59:34;10.70;;;3.83;;
22160;SDS011;49035;48.812;11.762;2024-01-16T14:02:01;6.37;;;4.00;;
22160;SDS011;49035;48.812;11.762;2024-01-16T14:04:28;6.23;;;4.00;;
22160;SDS011;49035;48.812;11.762;2024-01-16T14:06:53;4.57;;;3.10;;
22160;SDS011;49035;48.812;11.762;2024-01-16T14:09:20;5.10;;;2.60;;
22160;SDS011;49035;48.812;11.762;2024-01-16T14:11:45;7.00;;;3.10;;
22160;SDS011;49035;48.812;11.762;2024-01-16T14:14:11;7.53;;;3.30;;
22160;SDS011;49035;48.812;11.762;2024-01-16T14:16:38;6.33;;;3.30;;
22160;SDS011;49035;48.812;11.762;2024-01-16T14:19:03;4.57;;;2.80;;
22160;SDS011;49035;48.812;11.762;2024-01-16T14:21:29;4.80;;;3.03;;
22160;SDS011;49035;48.812;11.762;2024-01-16T14:23:55;5.13;;;3.30;;
22160;SDS011;49035;48.812;11.762;2024-01-16T14:26:20;6.50;;;3.03;;
22160;SDS011;49035;48.812;11.762;2024-01-16T14:28:46;4.00;;;2.80;;
22160;SDS011;49035;48.812;11.762;2024-01-16T14:31:12;4.17;;;2.70;;
22160;SDS011;49035;48.812;11.762;2024-01-16T14:33:37;4.33;;;2.90;;
22160;SDS011;49035;48.812;11.762;2024-01-16T14:36:03;8.73;;;3.17;;
22160;SDS011;49035;48.812;11.762;2024-01-16T14:38:29;5.17;;;3.17;;
22160;SDS011;49035;48.812;11.762;2024-01-16T14:40:55;8.53;;;3.53;;
22160;SDS011;49035;48.812;11.762;2024-01-16T14:43:21;8.03;;;3.90;;
22160;SDS011;49035;48.812;11.762;2024-01-16T14:45:47;8.17;;;3.53;;
22160;SDS011;49035;48.812;11.762;2024-01-16T14:48:14;7.63;;;4.30;;